Time;durP1;ratioP1;P1;durP2;ratioP2;P2;SDS_P1;SDS_P2;PMS_P1;PMS_P2;Temp;Humidity;BMP_temperature;BMP_pressure;BME280_temperature;BME280_humidity;BME280_pressure;Samples;Min_cycle;Max_cycle;Signal;HPM_P1;HPM_P2
2023/07/15 00:01:47;;;;;;;12.43;10.83;;;;;;;25.29;80.68;95045.53;5113131;28;20450;-80
2023/07/15 00:04:14;;;;;;;12.87;10.30;;;;;;;25.27;80.83;95044.91;5116704;28;20446;-78
2023/07/15 00:06:44;;;;;;;12.30;11.00;;;;;;;25.10;81.52;95046.47;5117286;28;20491;-80
2023/07/15 00:09:11;;;;;;;13.27;11.13;;;;;;;24.93;82.79;95048.00;5117142;28;20591;-79
2023/07/15 00:11:41;;;;;;;16.07;11.10;;;;;;;24.95;83.42;95045.91;5117321;28;20447;-80
2023/07/15 00:14:16;;;;;;;14.63;10.53;;;;;;;24.94;83.87;95038.91;5117168;28;20446;-79
2023/07/15 00:16:44;;;;;;;12.43;10.60;;;;;;;24.95;84.13;95040.53;5116906;28;20448;-80
2023/07/15 00:19:11;;;;;;;15.10;12.53;;;;;;;24.99;84.49;95053.34;5117087;28;20449;-80
2023/07/15 00:21:39;;;;;;;12.30;11.07;;;;;;;25.01;84.16;95051.28;5116844;28;20501;-79
2023/07/15 00:24:06;;;;;;;12.97;11.57;;;;;;;25.04;84.26;95055.38;5116835;28;20532;-79
2023/07/15 00:26:34;;;;;;;12.40;11.10;;;;;;;25.08;83.96;95056.59;5116547;28;20528;-78
2023/07/15 00:29:01;;;;;;;13.50;12.00;;;;;;;25.11;83.96;95048.09;5116948;28;20486;-79
2023/07/15 00:31:29;;;;;;;15.37;11.30;;;;;;;25.12;83.49;95055.13;5116523;28;20479;-79
2023/07/15 00:33:58;;;;;;;12.27;11.07;;;;;;;25.14;83.70;95054.91;5116710;28;20536;-78
2023/07/15 00:36:26;;;;;;;13.30;10.63;;;;;;;25.15;83.49;95051.19;5116895;28;20474;-77
2023/07/15 00:38:54;;;;;;;14.60;10.73;;;;;;;25.13;83.36;95048.72;5116603;28;20864;-79
2023/07/15 00:41:23;;;;;;;16.37;11.80;;;;;;;25.17;82.76;95051.81;5116909;28;20908;-78
2023/07/15 00:43:53;;;;;;;11.13;10.00;;;;;;;25.16;82.40;95053.69;5116396;28;20451;-78
2023/07/15 00:47:05;;;;;;;12.57;10.40;;;;;;;25.11;81.63;95056.16;5116595;28;20476;-79
2023/07/15 00:49:36;;;;;;;11.20;10.10;;;;;;;25.08;81.80;95055.78;5115522;28;20984;-79
2023/07/15 00:52:08;;;;;;;11.20;10.20;;;;;;;25.09;81.88;95058.25;5116403;28;20442;-79
2023/07/15 00:54:37;;;;;;;12.27;10.97;;;;;;;25.05;81.85;95062.41;5116513;28;20452;-79
2023/07/15 00:57:06;;;;;;;15.57;10.50;;;;;;;25.00;81.75;95052.31;5116431;28;20503;-79
2023/07/15 00:59:33;;;;;;;13.13;11.40;;;;;;;24.96;81.80;95059.13;5116631;28;20650;-79
2023/07/15 01:02:01;;;;;;;13.83;10.03;;;;;;;24.93;82.28;95058.75;5116306;28;20439;-80
2023/07/15 01:04:28;;;;;;;11.50;9.60;;;;;;;24.90;81.88;95060.00;5116241;28;20944;-77
2023/07/15 01:06:56;;;;;;;14.50;9.93;;;;;;;24.90;82.56;95060.00;5116355;28;20449;-79
2023/07/15 01:09:25;;;;;;;19.70;10.10;;;;;;;24.90;82.47;95064.53;5115937;28;20490;-77
2023/07/15 01:11:51;;;;;;;11.43;10.30;;;;;;;24.92;82.24;95065.16;5116543;28;20545;-79
2023/07/15 01:14:18;;;;;;;11.40;9.90;;;;;;;24.94;81.97;95068.44;5115235;28;20454;-79
2023/07/15 01:16:47;;;;;;;14.17;9.83;;;;;;;24.95;82.16;95072.78;5116792;28;20468;-80
2023/07/15 01:19:14;;;;;;;12.90;10.70;;;;;;;24.99;81.98;95071.31;5116718;28;20446;-78
2023/07/15 01:21:41;;;;;;;11.80;10.13;;;;;;;24.97;81.50;95068.00;5116852;28;20442;-79
2023/07/15 01:24:09;;;;;;;13.30;11.43;;;;;;;24.92;81.78;95071.34;5116383;28;20923;-78
2023/07/15 01:26:36;;;;;;;13.73;10.20;;;;;;;24.95;81.62;95072.78;5116192;28;20848;-76
2023/07/15 01:29:03;;;;;;;12.63;10.30;;;;;;;24.94;81.42;95071.13;5116068;28;20453;-79
2023/07/15 01:31:30;;;;;;;10.53;9.43;;;;;;;24.93;81.41;95074.84;5115748;28;20443;-78
2023/07/15 01:33:57;;;;;;;11.57;10.23;;;;;;;24.90;81.95;95064.53;5115971;28;20852;-77
2023/07/15 01:36:25;;;;;;;10.70;9.40;;;;;;;24.88;81.59;95070.13;5116060;28;20485;-79
2023/07/15 01:38:52;;;;;;;12.40;10.30;;;;;;;24.85;81.69;95067.00;5115570;28;20444;-78
2023/07/15 01:41:20;;;;;;;15.10;10.23;;;;;;;24.84;81.79;95073.41;5115565;28;20529;-78
2023/07/15 01:43:47;;;;;;;16.20;11.50;;;;;;;24.78;82.34;95074.28;5096695;28;20805;-78
2023/07/15 01:46:13;;;;;;;16.30;10.50;;;;;;;24.67;82.43;95076.59;5115626;28;20447;-77
2023/07/15 01:48:40;;;;;;;16.00;10.03;;;;;;;24.66;82.32;95080.31;5115730;28;20441;-79
2023/07/15 01:51:07;;;;;;;10.80;9.50;;;;;;;24.59;82.46;95078.72;5115437;28;20478;-79
2023/07/15 01:53:34;;;;;;;13.37;10.90;;;;;;;24.55;82.70;95075.59;5115708;28;20534;-78
2023/07/15 01:56:01;;;;;;;11.73;10.50;;;;;;;24.57;82.66;95081.56;5115296;28;20451;-78
2023/07/15 01:58:29;;;;;;;16.63;10.77;;;;;;;24.51;82.82;95074.38;5115226;28;20444;-78
2023/07/15 02:00:56;;;;;;;18.30;10.10;;;;;;;24.52;82.91;95083.25;5115196;28;20450;-78
2023/07/15 02:03:23;;;;;;;15.47;11.07;;;;;;;24.50;83.53;95078.09;5063120;28;20447;-78
2023/07/15 02:05:51;;;;;;;15.83;11.00;;;;;;;24.49;83.56;95084.50;5115487;28;20499;-79
2023/07/15 02:08:18;;;;;;;11.67;9.90;;;;;;;24.50;83.25;95080.78;5115533;28;20488;-76
2023/07/15 02:10:48;;;;;;;11.60;10.40;;;;;;;24.47;83.81;95081.22;5114774;28;21016;-77
2023/07/15 02:13:15;;;;;;;14.03;10.50;;;;;;;24.47;83.76;95078.53;5114835;28;20449;-76
2023/07/15 02:15:43;;;;;;;12.10;10.80;;;;;;;24.46;83.72;95074.19;5114918;28;20447;-79
2023/07/15 02:18:10;;;;;;;13.20;10.30;;;;;;;24.44;83.37;95076.28;5114970;28;20446;-79
2023/07/15 02:20:37;;;;;;;15.03;10.93;;;;;;;24.43;83.80;95076.47;5114865;28;20445;-79
2023/07/15 02:23:04;;;;;;;11.90;10.20;;;;;;;24.42;83.16;95075.66;5114579;28;20483;-80
2023/07/15 02:25:32;;;;;;;16.53;10.20;;;;;;;24.39;83.46;95078.75;5061876;28;20437;-79
2023/07/15 02:27:59;;;;;;;12.53;11.00;;;;;;;24.37;84.04;95078.16;5114909;28;20446;-81
2023/07/15 02:30:26;;;;;;;12.70;10.23;;;;;;;24.33;84.28;95076.94;5114609;28;20486;-80
2023/07/15 02:32:54;;;;;;;12.43;10.97;;;;;;;24.28;84.30;95079.41;5114759;28;20452;-80
2023/07/15 02:35:22;;;;;;;14.63;11.07;;;;;;;24.23;84.25;95076.50;5114600;28;20446;-80
2023/07/15 02:37:49;;;;;;;13.47;10.83;;;;;;;24.18;84.79;95082.47;5114352;28;20453;-80
2023/07/15 02:40:17;;;;;;;13.70;11.50;;;;;;;24.18;84.34;95081.66;5114439;28;20444;-79
2023/07/15 02:42:44;;;;;;;11.80;10.30;;;;;;;24.17;84.19;95072.78;5114454;28;20811;-80
2023/07/15 02:45:12;;;;;;;11.77;10.53;;;;;;;24.14;84.40;95069.72;5114337;28;20441;-80
2023/07/15 02:47:40;;;;;;;14.67;11.50;;;;;;;24.12;84.39;95077.97;5114290;28;20447;-80
2023/07/15 02:50:10;;;;;;;14.53;12.10;;;;;;;24.13;84.77;95073.44;5114007;28;20517;-80
2023/07/15 02:52:38;;;;;;;15.27;11.23;;;;;;;24.09;85.16;95084.56;5114741;28;20503;-79
2023/07/15 02:55:07;;;;;;;12.80;10.57;;;;;;;24.08;84.95;95076.75;5114174;28;20453;-80
2023/07/15 02:57:36;;;;;;;12.73;10.70;;;;;;;24.06;85.25;95082.31;5061540;28;20477;-80
2023/07/15 03:00:10;;;;;;;19.00;11.83;;;;;;;24.02;85.25;95072.22;5062783;28;20447;-79
2023/07/15 03:02:37;;;;;;;11.43;9.73;;;;;;;23.96;85.81;95073.03;5114652;28;20530;-81
2023/07/15 03:05:05;;;;;;;19.10;10.87;;;;;;;23.97;85.99;95086.22;5113992;28;20519;-80
2023/07/15 03:07:34;;;;;;;16.90;10.40;;;;;;;23.95;85.76;95088.28;5095656;28;20438;-80
2023/07/15 03:10:00;;;;;;;14.03;10.67;;;;;;;23.72;87.10;95082.56;5113778;28;20515;-79
2023/07/15 03:12:28;;;;;;;14.50;10.40;;;;;;;23.74;86.53;95083.16;5114149;28;20498;-79
2023/07/15 03:14:55;;;;;;;13.33;11.23;;;;;;;23.74;87.26;95093.88;5113625;28;20446;-80
2023/07/15 03:17:22;;;;;;;11.83;10.40;;;;;;;23.77;87.01;95093.47;5113693;28;20446;-80
2023/07/15 03:19:49;;;;;;;13.80;11.10;;;;;;;23.76;87.16;95089.97;5113747;28;20996;-80
2023/07/15 03:22:15;;;;;;;12.07;10.80;;;;;;;23.69;88.06;95093.66;5113731;28;20441;-80
2023/07/15 03:24:44;;;;;;;15.70;11.70;;;;;;;23.69;88.55;95090.97;5113589;28;20444;-80
2023/07/15 03:27:10;;;;;;;17.23;12.23;;;;;;;23.75;88.62;95087.50;5113884;28;20442;-81
2023/07/15 03:29:37;;;;;;;13.10;11.20;;;;;;;23.76;88.69;95097.19;5113475;28;20458;-80
2023/07/15 03:32:04;;;;;;;17.80;12.03;;;;;;;23.84;88.35;95096.97;5113931;28;20456;-80
2023/07/15 03:34:31;;;;;;;23.27;12.40;;;;;;;23.88;89.08;95105.41;5113795;28;20452;-80
2023/07/15 03:36:58;;;;;;;18.20;11.40;;;;;;;24.07;88.26;95102.72;5113112;28;20466;-80
2023/07/15 03:39:25;;;;;;;16.30;12.50;;;;;;;24.20;87.71;95106.41;5077805;28;20459;-80
2023/07/15 03:41:53;;;;;;;11.90;10.00;;;;;;;24.46;86.29;95103.72;5113404;28;20453;-80
2023/07/15 03:44:20;;;;;;;17.70;12.33;;;;;;;24.70;85.07;95097.66;5113779;28;20452;-77
2023/07/15 03:46:47;;;;;;;14.57;12.60;;;;;;;24.82;83.23;95099.66;5113347;28;20954;-80
2023/07/15 03:49:13;;;;;;;17.67;11.20;;;;;;;24.87;83.87;95098.00;5113601;28;20930;-80
2023/07/15 03:51:40;;;;;;;23.03;11.93;;;;;;;25.06;82.59;95088.22;5113214;28;20489;-80
2023/07/15 03:54:07;;;;;;;16.23;11.40;;;;;;;25.26;81.67;95085.44;5113533;28;20789;-80
2023/07/15 03:56:34;;;;;;;14.67;10.67;;;;;;;25.56;80.71;95093.72;5113262;28;20443;-81
2023/07/15 03:59:02;;;;;;;15.00;11.00;;;;;;;25.88;78.95;95089.97;5113327;28;20451;-80
2023/07/15 04:01:29;;;;;;;12.97;11.70;;;;;;;26.19;77.34;95099.00;5113330;28;20448;-81
2023/07/15 04:03:56;;;;;;;14.20;10.67;;;;;;;26.34;76.43;95096.84;5113353;28;20446;-80
2023/07/15 04:06:23;;;;;;;14.30;11.20;;;;;;;26.36;75.71;95088.53;5113174;28;20450;-80
2023/07/15 04:08:50;;;;;;;12.20;10.90;;;;;;;26.45;75.77;95098.78;5113514;28;20443;-80
2023/07/15 04:11:18;;;;;;;15.23;11.67;;;;;;;26.43;75.28;95095.47;5113288;28;20484;-80
2023/07/15 04:13:45;;;;;;;13.70;11.40;;;;;;;26.48;75.21;95092.94;5061306;28;20483;-80
2023/07/15 04:16:13;;;;;;;16.43;10.87;;;;;;;26.44;74.78;95091.75;5113837;28;20447;-80
2023/07/15 04:18:40;;;;;;;12.10;10.90;;;;;;;26.44;75.60;95105.19;5113282;28;20446;-80
2023/07/15 04:21:07;;;;;;;14.40;10.23;;;;;;;26.50;75.82;95112.38;5113337;28;20813;-80
2023/07/15 04:23:37;;;;;;;13.63;11.50;;;;;;;26.57;75.35;95120.38;5077588;28;20502;-80
2023/07/15 04:26:03;;;;;;;16.60;11.90;;;;;;;26.64;75.02;95120.31;5112930;28;20443;-80
2023/07/15 04:28:30;;;;;;;20.80;13.30;;;;;;;26.68;74.03;95121.53;5113229;28;20466;-77
2023/07/15 04:30:57;;;;;;;14.17;11.93;;;;;;;26.74;73.97;95120.63;5112951;28;21530;-79
2023/07/15 04:33:25;;;;;;;14.13;11.23;;;;;;;26.85;74.59;95133.31;5113308;28;20439;-80
2023/07/15 04:35:52;;;;;;;16.60;12.10;;;;;;;27.04;74.33;95137.69;5112985;28;20501;-79
2023/07/15 04:38:21;;;;;;;17.40;13.27;;;;;;;27.14;73.22;95137.16;5112535;28;20443;-79
2023/07/15 04:40:48;;;;;;;14.67;12.87;;;;;;;27.40;71.68;95141.38;5113027;28;20809;-80
2023/07/15 04:43:14;;;;;;;17.80;13.00;;;;;;;27.63;71.31;95138.78;5112566;28;20804;-80
2023/07/15 04:45:41;;;;;;;13.50;12.17;;;;;;;27.82;70.24;95139.56;5112658;28;20442;-80
2023/07/15 04:48:08;;;;;;;16.30;11.63;;;;;;;28.04;69.08;95147.91;5112701;28;20449;-79
2023/07/15 04:50:38;;;;;;;16.00;13.47;;;;;;;28.19;68.54;95150.19;5080812;28;20482;-80
2023/07/15 04:53:05;;;;;;;17.23;13.87;;;;;;;28.28;67.47;95152.31;5116271;28;20475;-81
2023/07/15 04:55:32;;;;;;;19.50;14.90;;;;;;;28.36;66.97;95146.59;5116297;28;20442;-81
2023/07/15 04:57:59;;;;;;;18.57;13.77;;;;;;;28.43;67.93;95138.38;5063686;28;20438;-80
2023/07/15 05:00:27;;;;;;;19.47;12.67;;;;;;;28.63;66.89;95140.72;5116082;28;20443;-81
2023/07/15 05:02:56;;;;;;;21.87;11.40;;;;;;;28.76;66.03;95143.16;5116180;28;20439;-81
2023/07/15 05:05:23;;;;;;;16.13;11.37;;;;;;;28.90;65.27;95149.16;5115955;28;20507;-80
2023/07/15 05:07:52;;;;;;;16.90;12.87;;;;;;;28.99;64.74;95148.56;5115985;28;20447;-80
2023/07/15 05:10:19;;;;;;;18.13;12.67;;;;;;;29.16;64.91;95140.50;5116060;28;20488;-80
2023/07/15 05:12:46;;;;;;;19.23;11.80;;;;;;;29.50;63.70;95141.50;5116111;28;20443;-80
2023/07/15 05:15:14;;;;;;;16.50;11.90;;;;;;;29.78;62.29;95137.13;5115917;28;20443;-82
2023/07/15 05:17:42;;;;;;;18.47;11.97;;;;;;;30.22;61.67;95143.59;5063900;28;20947;-80
2023/07/15 05:20:10;;;;;;;17.20;11.10;;;;;;;30.58;59.55;95142.25;5115564;28;20447;-80
2023/07/15 05:22:37;;;;;;;12.40;11.00;;;;;;;30.76;58.32;95141.19;5115931;28;20443;-79
2023/07/15 05:25:05;;;;;;;15.83;12.03;;;;;;;30.65;58.37;95133.97;5115577;28;20462;-79
2023/07/15 05:27:32;;;;;;;18.20;11.93;;;;;;;30.80;58.21;95136.91;5115594;28;20552;-79
2023/07/15 05:29:59;;;;;;;12.57;11.07;;;;;;;30.98;57.73;95130.38;5115768;28;20930;-80
2023/07/15 05:32:26;;;;;;;14.60;11.70;;;;;;;31.02;57.46;95131.53;5115325;28;20483;-79
2023/07/15 05:34:53;;;;;;;17.07;10.73;;;;;;;31.17;57.87;95129.00;5115248;28;20459;-80
2023/07/15 05:37:19;;;;;;;15.73;12.17;;;;;;;31.29;57.94;95131.63;5115742;28;20828;-79
2023/07/15 05:39:46;;;;;;;12.00;10.80;;;;;;;31.29;57.09;95124.28;5116063;28;20446;-80
2023/07/15 05:42:15;;;;;;;15.43;12.27;;;;;;;31.50;56.14;95122.59;5115881;28;20442;-80
2023/07/15 05:44:41;;;;;;;15.77;12.10;;;;;;;31.50;56.16;95132.66;5115632;28;20450;-80
2023/07/15 05:47:08;;;;;;;13.93;11.27;;;;;;;31.50;55.88;95135.34;5115877;28;20451;-80
2023/07/15 05:49:35;;;;;;;14.60;11.00;;;;;;;31.62;55.24;95144.19;5115803;28;20447;-80
2023/07/15 05:52:02;;;;;;;12.80;9.80;;;;;;;31.76;55.72;95145.44;5116089;28;20891;-80
2023/07/15 05:54:28;;;;;;;20.97;12.70;;;;;;;31.26;56.32;95143.78;5115832;28;20455;-80
2023/07/15 05:56:55;;;;;;;11.60;10.40;;;;;;;31.54;55.89;95144.66;5115300;28;20451;-79
2023/07/15 05:59:23;;;;;;;15.27;11.50;;;;;;;31.60;55.96;95149.88;5115557;28;20439;-80
2023/07/15 06:01:50;;;;;;;14.30;11.10;;;;;;;31.39;56.12;95151.53;5114927;28;20442;-80
2023/07/15 06:04:17;;;;;;;12.40;10.53;;;;;;;31.67;56.27;95149.66;5115068;28;20447;-77
2023/07/15 06:06:44;;;;;;;16.43;11.30;;;;;;;31.62;55.40;95153.16;5115503;28;20861;-80
2023/07/15 06:09:11;;;;;;;12.27;10.90;;;;;;;31.47;55.40;95155.69;5063276;28;20454;-79
2023/07/15 06:11:38;;;;;;;11.83;10.47;;;;;;;31.77;55.56;95146.25;5115029;28;20486;-80
2023/07/15 06:14:05;;;;;;;17.67;11.90;;;;;;;31.68;55.50;95143.16;5115466;28;20439;-79
2023/07/15 06:16:33;;;;;;;15.27;11.40;;;;;;;31.93;55.20;95142.63;5115217;28;20447;-79
2023/07/15 06:19:00;;;;;;;23.20;11.87;;;;;;;32.31;54.96;95144.34;5115266;28;20439;-80
2023/07/15 06:21:27;;;;;;;14.60;10.70;;;;;;;32.57;54.45;95143.44;5115181;28;20447;-78
2023/07/15 06:23:53;;;;;;;14.80;10.67;;;;;;;32.86;52.85;95135.78;5115151;28;20960;-79
2023/07/15 06:26:20;;;;;;;16.97;10.97;;;;;;;32.77;52.06;95140.06;5114723;28;20786;-80
2023/07/15 06:28:47;;;;;;;14.70;9.50;;;;;;;32.65;53.86;95132.09;5114822;28;20850;-81
2023/07/15 06:31:14;;;;;;;11.97;10.13;;;;;;;32.17;54.16;95133.06;5114998;28;20478;-80
2023/07/15 06:33:44;;;;;;;11.37;10.10;;;;;;;32.56;53.88;95121.97;5114998;28;20443;-80
2023/07/15 06:36:11;;;;;;;17.83;10.90;;;;;;;32.88;51.87;95121.91;5114793;28;20502;-80
2023/07/15 06:38:38;;;;;;;13.10;9.60;;;;;;;33.05;52.06;95132.63;5115030;28;20446;-80
2023/07/15 06:41:05;;;;;;;14.80;9.90;;;;;;;33.17;50.81;95133.22;5114150;28;20451;-81
2023/07/15 06:43:32;;;;;;;11.87;9.93;;;;;;;33.23;51.07;95124.81;5114434;28;20450;-81
2023/07/15 06:45:59;;;;;;;13.67;9.67;;;;;;;33.13;50.69;95122.03;5114162;28;20799;-81
2023/07/15 06:48:26;;;;;;;14.17;11.17;;;;;;;32.08;52.47;95121.03;5114313;28;20458;-80
2023/07/15 06:50:56;;;;;;;13.43;11.33;;;;;;;32.08;53.68;95117.50;5114337;28;20485;-80
2023/07/15 06:53:23;;;;;;;11.50;10.30;;;;;;;32.32;53.94;95132.41;5113916;28;20447;-80
2023/07/15 06:55:51;;;;;;;24.73;11.60;;;;;;;31.96;53.24;95121.22;5113909;28;20450;-80
2023/07/15 06:58:18;;;;;;;12.47;10.03;;;;;;;32.41;53.96;95124.59;5113949;28;20452;-80
2023/07/15 07:00:44;;;;;;;13.30;10.80;;;;;;;32.43;53.02;95128.69;5113874;28;20956;-81
2023/07/15 07:03:11;;;;;;;15.50;11.47;;;;;;;32.53;53.18;95127.94;5077721;28;20496;-81
2023/07/15 07:05:38;;;;;;;19.20;10.93;;;;;;;32.40;53.57;95122.97;5113700;28;20443;-80
2023/07/15 07:08:09;;;;;;;10.73;9.60;;;;;;;32.51;52.76;95117.34;5113626;28;20803;-81
2023/07/15 07:10:35;;;;;;;11.37;10.27;;;;;;;32.88;52.65;95125.47;5113944;28;20492;-80
2023/07/15 07:13:03;;;;;;;18.80;10.20;;;;;;;33.13;50.73;95130.22;5061933;28;20439;-76
2023/07/15 07:15:29;;;;;;;14.20;10.97;;;;;;;32.34;52.08;95132.94;5114287;28;20441;-81
2023/07/15 07:17:56;;;;;;;11.17;9.97;;;;;;;31.77;53.62;95122.66;5061564;28;20438;-80
2023/07/15 07:20:23;;;;;;;10.30;9.30;;;;;;;32.33;53.37;95125.88;5114073;28;20447;-81
2023/07/15 07:22:50;;;;;;;11.50;9.93;;;;;;;32.25;52.49;95124.47;5113672;28;20447;-79
2023/07/15 07:25:18;;;;;;;12.53;9.77;;;;;;;32.17;52.08;95132.25;5113789;28;20862;-80
2023/07/15 07:27:45;;;;;;;13.93;10.13;;;;;;;32.23;52.88;95126.59;5113619;28;20451;-80
2023/07/15 07:30:12;;;;;;;11.60;10.40;;;;;;;32.48;52.10;95122.47;5113668;28;20443;-81
2023/07/15 07:32:40;;;;;;;13.60;10.47;;;;;;;32.41;51.20;95127.31;5113455;28;20482;-81
2023/07/15 07:35:07;;;;;;;12.77;9.10;;;;;;;32.60;50.61;95118.47;5113553;28;20453;-80
2023/07/15 07:37:34;;;;;;;17.40;9.70;;;;;;;32.80;50.43;95123.25;5078288;28;20439;-80
2023/07/15 07:40:01;;;;;;;16.70;9.77;;;;;;;32.28;51.58;95115.81;5113987;28;20450;-81
2023/07/15 07:42:29;;;;;;;10.37;8.43;;;;;;;32.40;50.10;95114.81;5114022;28;21017;-80
2023/07/15 07:44:57;;;;;;;11.13;10.00;;;;;;;32.84;49.42;95112.66;5113561;28;20444;-80
2023/07/15 07:47:25;;;;;;;12.90;9.43;;;;;;;33.28;49.03;95115.06;5077837;28;20423;-80
2023/07/15 07:49:52;;;;;;;10.63;9.23;;;;;;;33.61;48.26;95114.63;5113704;28;20443;-82
2023/07/15 07:52:19;;;;;;;10.23;8.60;;;;;;;33.93;47.29;95105.47;5113621;28;20485;-80
2023/07/15 07:54:46;;;;;;;14.33;10.10;;;;;;;33.94;46.83;95112.53;5113668;28;20442;-80
2023/07/15 07:57:14;;;;;;;15.63;9.77;;;;;;;33.53;47.70;95112.41;5113596;28;20441;-78
2023/07/15 07:59:42;;;;;;;14.23;10.63;;;;;;;32.86;48.94;95107.78;5113688;28;20953;-81
2023/07/15 08:02:14;;;;;;;14.93;10.03;;;;;;;33.13;49.37;95105.72;5113408;28;20522;-81
2023/07/15 08:04:40;;;;;;;17.17;11.30;;;;;;;33.24;48.73;95109.28;5113491;28;20925;-81
2023/07/15 08:07:07;;;;;;;22.40;11.20;;;;;;;32.40;49.86;95114.81;5113310;28;20786;-81
2023/07/15 08:09:34;;;;;;;18.43;11.37;;;;;;;32.53;50.75;95109.72;5113670;28;20808;-80
2023/07/15 08:12:01;;;;;;;14.30;10.97;;;;;;;32.50;49.93;95112.97;5113568;28;20487;-81
2023/07/15 08:14:27;;;;;;;16.80;10.63;;;;;;;32.95;50.30;95119.78;5113059;28;20503;-80
2023/07/15 08:16:56;;;;;;;11.50;9.63;;;;;;;33.13;48.16;95115.78;5113266;28;20435;-79
2023/07/15 08:19:22;;;;;;;10.20;9.10;;;;;;;33.13;48.31;95110.34;5113169;28;20442;-80
2023/07/15 08:21:50;;;;;;;10.30;9.23;;;;;;;33.34;49.44;95112.09;5113207;28;20472;-80
2023/07/15 08:24:17;;;;;;;10.13;9.13;;;;;;;32.98;50.33;95113.84;5115164;28;20449;-81
2023/07/15 08:26:44;;;;;;;11.80;9.93;;;;;;;32.70;50.96;95108.75;5117185;28;20439;-80
2023/07/15 08:29:10;;;;;;;13.97;10.57;;;;;;;32.64;50.54;95110.59;5116903;28;20516;-80
2023/07/15 08:31:37;;;;;;;14.03;9.63;;;;;;;32.37;50.64;95109.88;5064594;28;20491;-81
2023/07/15 08:34:05;;;;;;;13.57;11.03;;;;;;;32.66;51.54;95122.84;5116893;28;20450;-80
2023/07/15 08:36:34;;;;;;;11.37;9.00;;;;;;;32.81;50.32;95115.91;5116836;28;20467;-80
2023/07/15 08:39:01;;;;;;;13.57;9.40;;;;;;;32.77;51.18;95110.16;5116674;28;20450;-80
2023/07/15 08:41:28;;;;;;;12.10;10.90;;;;;;;32.67;50.84;95112.78;5116980;28;20792;-81
2023/07/15 08:43:54;;;;;;;15.43;11.40;;;;;;;32.46;51.06;95109.16;5117516;28;20454;-80
2023/07/15 08:46:27;;;;;;;11.77;10.67;;;;;;;32.43;52.01;95106.97;5081518;28;20439;-80
2023/07/15 08:48:55;;;;;;;15.87;11.03;;;;;;;32.76;52.79;95105.81;5118551;28;20443;-81
2023/07/15 08:51:30;;;;;;;12.00;9.90;;;;;;;32.82;50.82;95107.50;5117010;28;20466;-80
2023/07/15 08:54:01;;;;;;;13.20;11.83;;;;;;;32.62;51.29;95107.34;5116712;28;20453;-81
2023/07/15 08:56:29;;;;;;;11.20;10.10;;;;;;;32.62;52.16;95102.72;5116401;28;20439;-81
2023/07/15 08:58:57;;;;;;;19.20;11.00;;;;;;;32.79;51.67;95101.75;5116426;28;20445;-81
2023/07/15 09:01:24;;;;;;;14.60;12.50;;;;;;;33.00;52.25;95113.56;5116193;28;20451;-80
2023/07/15 09:03:51;;;;;;;12.63;10.97;;;;;;;32.70;52.24;95108.75;5116418;28;20445;-80
2023/07/15 09:06:18;;;;;;;13.30;11.43;;;;;;;32.56;51.86;95094.81;5116262;28;20451;-80
2023/07/15 09:08:51;;;;;;;16.43;11.97;;;;;;;32.68;52.33;95102.78;5116382;28;20439;-81
2023/07/15 09:11:18;;;;;;;18.73;11.10;;;;;;;32.76;51.76;95108.53;5116113;28;20916;-82
2023/07/15 09:13:46;;;;;;;13.30;12.00;;;;;;;32.97;51.71;95114.09;5116288;28;20474;-81
2023/07/15 09:16:13;;;;;;;19.70;12.77;;;;;;;33.11;50.85;95102.47;5116386;28;20869;-81
2023/07/15 09:18:42;;;;;;;13.20;11.27;;;;;;;33.15;49.85;95094.59;5116019;28;20724;-80
2023/07/15 09:21:10;;;;;;;15.30;11.53;;;;;;;33.10;50.32;95108.16;5116120;28;20439;-81
2023/07/15 09:23:42;;;;;;;14.57;11.73;;;;;;;32.97;51.14;95104.03;5115751;28;20450;-81
2023/07/15 09:26:13;;;;;;;13.13;11.83;;;;;;;33.12;50.03;95106.81;5116082;28;20443;-81
2023/07/15 09:28:42;;;;;;;15.33;11.83;;;;;;;33.17;50.10;95097.84;5115837;28;20450;-80
2023/07/15 09:31:09;;;;;;;19.27;12.90;;;;;;;33.23;50.47;95099.50;5115797;28;20471;-80
2023/07/15 09:33:38;;;;;;;12.80;11.60;;;;;;;33.26;51.78;95097.09;5115852;28;20471;-80
2023/07/15 09:36:06;;;;;;;14.13;12.37;;;;;;;33.35;50.10;95088.44;5114404;28;20899;-80
2023/07/15 09:38:34;;;;;;;16.10;13.27;;;;;;;33.42;50.04;95078.09;5115905;28;20827;-80
2023/07/15 09:41:01;;;;;;;17.57;13.00;;;;;;;33.44;50.74;95078.66;5115908;28;20953;-80
2023/07/15 09:43:49;;;;;;;15.50;13.60;;;;;;;33.09;51.68;95074.72;5115819;28;20447;-79
2023/07/15 09:46:17;;;;;;;19.07;13.97;;;;;;;32.87;50.82;95076.78;5115917;28;20894;-80
2023/07/15 09:48:47;;;;;;;18.40;13.57;;;;;;;33.01;51.48;95075.22;5115198;28;20439;-81
2023/07/15 09:51:15;;;;;;;18.00;12.80;;;;;;;32.72;52.04;95087.56;5115683;28;20443;-81
2023/07/15 09:53:45;;;;;;;14.67;13.10;;;;;;;32.87;52.11;95076.78;5115360;28;20486;-82
2023/07/15 09:56:13;;;;;;;15.13;12.30;;;;;;;32.90;53.16;95070.81;5115186;28;20438;-80
2023/07/15 09:58:44;;;;;;;15.37;11.80;;;;;;;32.92;51.86;95074.09;5115507;28;20454;-80
2023/07/15 10:01:20;;;;;;;14.67;11.80;;;;;;;32.90;52.40;95068.09;5114996;28;20470;-80
2023/07/15 10:03:59;;;;;;;18.53;13.30;;;;;;;33.00;52.89;95064.63;5115502;28;20442;-78
2023/07/15 10:06:26;;;;;;;13.30;12.00;;;;;;;32.91;52.74;95061.56;5115254;28;20885;-80
2023/07/15 10:08:54;;;;;;;17.00;11.63;;;;;;;32.68;53.39;95065.53;5096202;28;20447;-81
2023/07/15 10:11:21;;;;;;;16.30;12.40;;;;;;;32.64;54.92;95061.69;5115285;28;20921;-80
2023/07/15 10:13:49;;;;;;;15.43;12.50;;;;;;;32.47;53.44;95058.34;5115549;28;20482;-81
2023/07/15 10:16:17;;;;;;;16.53;11.80;;;;;;;32.50;55.61;95058.63;5062570;28;20563;-80
2023/07/15 10:18:46;;;;;;;14.50;13.07;;;;;;;32.38;55.26;95068.88;5120561;28;20447;-80
2023/07/15 10:21:15;;;;;;;13.80;12.03;;;;;;;32.46;53.75;95057.53;5121174;28;20933;-80
2023/07/15 10:23:42;;;;;;;15.00;12.67;;;;;;;32.55;53.63;95058.66;5119979;28;20458;-80
2023/07/15 10:26:10;;;;;;;17.93;13.43;;;;;;;32.55;53.18;95058.66;5118536;28;20435;-81
2023/07/15 10:28:39;;;;;;;14.10;12.60;;;;;;;32.71;53.77;95056.84;5118859;28;20447;-78
2023/07/15 10:31:11;;;;;;;17.60;12.57;;;;;;;32.76;53.58;95064.22;5117336;28;20446;-80
2023/07/15 10:33:54;;;;;;;12.93;11.37;;;;;;;32.57;53.06;95051.06;5117385;28;20482;-79
2023/07/15 10:36:40;;;;;;;17.37;13.60;;;;;;;32.52;54.09;95059.19;5063777;28;20981;-78
2023/07/15 10:39:12;;;;;;;14.03;12.10;;;;;;;32.23;54.27;95057.88;5052500;28;20463;-81
2023/07/15 10:41:47;;;;;;;14.27;11.13;;;;;;;31.99;54.05;95060.16;5052096;28;20433;-79
2023/07/15 10:44:21;;;;;;;13.97;12.40;;;;;;;31.77;55.09;95062.13;5051954;28;20433;-80
2023/07/15 10:46:48;;;;;;;13.37;11.77;;;;;;;31.82;55.17;95054.88;5018353;28;20505;-81
2023/07/15 10:49:18;;;;;;;13.43;12.00;;;;;;;31.91;56.68;95064.16;5061613;28;20441;-81
2023/07/15 10:51:45;;;;;;;16.40;13.00;;;;;;;32.00;54.66;95046.31;5064594;28;20504;-80
2023/07/15 10:54:12;;;;;;;14.37;11.50;;;;;;;32.19;54.82;95048.63;5064792;28;20445;-81
2023/07/15 10:56:39;;;;;;;13.23;11.20;;;;;;;32.23;53.80;95047.03;5064604;28;20442;-81
2023/07/15 10:59:05;;;;;;;12.80;11.60;;;;;;;32.34;54.52;95052.28;5064716;28;20444;-78
2023/07/15 11:01:32;;;;;;;13.80;11.93;;;;;;;32.40;55.90;95042.28;5064623;28;20931;-81
2023/07/15 11:04:05;;;;;;;28.07;10.57;;;;;;;32.38;54.29;95047.13;5064421;28;20453;-81
2023/07/15 11:06:35;;;;;;;14.23;11.30;;;;;;;32.59;53.46;95039.91;5064519;28;20445;-80
2023/07/15 11:09:14;;;;;;;12.03;10.80;;;;;;;32.84;53.52;95040.06;5064090;28;20438;-80
2023/07/15 11:11:44;;;;;;;13.70;11.53;;;;;;;32.96;52.67;95031.69;5063549;28;21038;-80
2023/07/15 11:14:22;;;;;;;13.00;10.87;;;;;;;33.00;52.74;95043.69;5052114;28;20482;-80
2023/07/15 11:16:51;;;;;;;19.40;11.63;;;;;;;33.13;53.49;95037.72;5096420;28;20443;-79
2023/07/15 11:19:17;;;;;;;18.23;11.40;;;;;;;33.04;52.12;95036.63;5114116;28;20497;-80
2023/07/15 11:21:46;;;;;;;12.73;11.43;;;;;;;33.17;51.77;95033.38;5113672;28;20451;-81
2023/07/15 11:24:16;;;;;;;15.97;12.20;;;;;;;33.16;51.53;95020.88;5113484;28;20451;-80